createdAt,value
2022-07-28T00:02:19.135Z,97878.88
2022-07-28T00:04:52.316Z,97875.31
2022-07-28T00:07:26.371Z,97867.53
2022-07-28T00:10:00.723Z,97862.31
2022-07-28T00:12:35.661Z,97869.13
2022-07-28T00:15:09.778Z,97866.41
2022-07-28T00:17:42.963Z,97868.25
2022-07-28T00:20:16.076Z,97863.72
2022-07-28T00:22:49.441Z,97873.06
2022-07-28T00:25:22.606Z,97868.72
2022-07-28T00:27:57.031Z,97871.25
2022-07-28T00:30:30.670Z,97857.44
2022-07-28T00:33:04.705Z,97863.41
2022-07-28T00:35:38.273Z,97862.56
2022-07-28T00:38:11.405Z,97864.69
2022-07-28T00:41:02.151Z,97857.63
2022-07-28T00:43:36.611Z,97858.50
2022-07-28T00:46:10.416Z,97850.41
2022-07-28T00:48:46.428Z,97852.06
2022-07-28T00:51:22.249Z,97836.31
2022-07-28T00:53:56.626Z,97844.00
2022-07-28T00:56:29.824Z,97851.91
2022-07-28T00:59:04.394Z,97837.97
2022-07-28T01:01:37.542Z,97843.75
2022-07-28T01:04:10.961Z,97842.09
2022-07-28T01:07:09.801Z,97833.41
2022-07-28T01:10:02.822Z,97841.94
2022-07-28T01:12:51.980Z,97840.09
2022-07-28T01:15:31.688Z,97833.84
2022-07-28T01:18:08.176Z,97828.56
2022-07-28T01:20:48.181Z,97833.69
2022-07-28T01:24:11.879Z,97829.16
2022-07-28T01:26:57.215Z,97830.00
2022-07-28T01:29:59.631Z,97823.78
2022-07-28T01:32:40.312Z,97823.94
2022-07-28T01:35:18.279Z,97825.53
2022-07-28T01:37:56.814Z,97829.72
2022-07-28T01:40:35.257Z,97817.03
2022-07-28T01:43:13.561Z,97815.28
2022-07-28T01:45:47.611Z,97812.78
2022-07-28T01:48:25.347Z,97816.16
2022-07-28T01:50:59.642Z,97811.69
2022-07-28T01:53:37.783Z,97811.63
2022-07-28T01:56:12.645Z,97800.28
2022-07-28T01:58:47.043Z,97803.78
2022-07-28T02:01:21.816Z,97806.13
2022-07-28T02:03:59.678Z,97807.56
2022-07-28T02:06:34.361Z,97795.47
2022-07-28T02:09:09.404Z,97786.94
2022-07-28T02:11:44.453Z,97787.88
2022-07-28T02:14:22.218Z,97787.81
2022-07-28T02:17:00.088Z,97784.28
2022-07-28T02:19:36.343Z,97784.28
2022-07-28T02:22:11.160Z,97782.41
2022-07-28T02:24:46.173Z,97777.06
2022-07-28T02:27:24.884Z,97781.19
2022-07-28T02:30:05.844Z,97779.38
2022-07-28T02:32:46.672Z,97778.59
2022-07-28T02:35:27.936Z,97777.41
2022-07-28T02:38:11.475Z,97786.72
2022-07-28T02:40:46.201Z,97774.53
2022-07-28T02:43:49.417Z,97777.63
2022-07-28T02:46:27.278Z,97777.53
2022-07-28T02:49:07.854Z,97771.50
2022-07-28T02:51:44.731Z,97779.88
2022-07-28T02:54:20.939Z,97778.78
2022-07-28T02:56:55.525Z,97780.31
2022-07-28T02:59:30.209Z,97778.50
2022-07-28T03:02:04.366Z,97779.47
2022-07-28T03:04:55.653Z,97783.91
2022-07-28T03:07:32.444Z,97785.47
2022-07-28T03:10:06.751Z,97787.22
2022-07-28T03:12:39.807Z,97782.88
2022-07-28T03:15:12.943Z,97800.09
2022-07-28T03:17:46.111Z,97796.41
2022-07-28T03:20:20.474Z,97792.63
2022-07-28T03:22:55.340Z,97792.72
2022-07-28T03:25:35.328Z,97797.03
2022-07-28T03:28:15.025Z,97794.34
2022-07-28T03:30:55.182Z,97800.38
2022-07-28T03:33:29.059Z,97799.50
2022-07-28T03:36:08.209Z,97800.16
2022-07-28T03:38:48.134Z,97802.06
2022-07-28T03:41:24.194Z,97806.09
2022-07-28T03:44:00.145Z,97808.38
2022-07-28T03:46:33.793Z,97804.25
2022-07-28T03:49:09.318Z,97800.06
2022-07-28T03:51:43.072Z,97801.88
2022-07-28T03:54:17.688Z,97812.22
2022-07-28T03:56:50.785Z,97810.19
2022-07-28T03:59:24.559Z,97804.69
2022-07-28T04:01:57.683Z,97808.88
2022-07-28T04:04:31.513Z,97804.66
2022-07-28T04:07:04.712Z,97806.31
2022-07-28T04:09:39.181Z,97807.16
2022-07-28T04:12:12.296Z,97807.34
2022-07-28T04:14:45.848Z,97809.91
2022-07-28T04:17:18.952Z,97810.00
2022-07-28T04:19:52.057Z,97807.44
2022-07-28T04:22:25.888Z,97811.84
2022-07-28T04:25:01.764Z,97806.91
2022-07-28T04:27:36.779Z,97818.44
2022-07-28T04:30:13.404Z,97814.41
2022-07-28T04:32:47.978Z,97811.22
2022-07-28T04:35:24.106Z,97809.50
2022-07-28T04:37:58.626Z,97806.22
2022-07-28T04:40:34.360Z,97809.84
2022-07-28T04:43:07.530Z,97815.25
2022-07-28T04:45:45.899Z,97817.16
2022-07-28T04:48:26.378Z,97813.72
2022-07-28T04:50:59.460Z,97810.19
2022-07-28T04:53:32.656Z,97810.38
2022-07-28T04:56:07.318Z,97803.53
2022-07-28T04:58:40.427Z,97803.66
2022-07-28T05:01:16.212Z,97802.84
2022-07-28T05:03:49.373Z,97800.50
2022-07-28T05:06:22.479Z,97800.84
2022-07-28T05:08:55.554Z,97808.84
2022-07-28T05:11:30.051Z,97813.09
2022-07-28T05:14:03.436Z,97805.97
2022-07-28T05:16:36.649Z,97803.72
2022-07-28T05:19:11.149Z,97806.03
2022-07-28T05:21:44.267Z,97806.50
2022-07-28T05:24:17.662Z,97802.00
2022-07-28T05:26:52.241Z,97805.97
2022-07-28T05:29:26.094Z,97796.78
2022-07-28T05:32:16.652Z,97800.72
2022-07-28T05:34:50.921Z,97799.72
2022-07-28T05:37:24.050Z,97811.81
2022-07-28T05:39:57.167Z,97800.09
2022-07-28T05:42:35.860Z,97806.63
2022-07-28T05:45:17.109Z,97808.53
2022-07-28T05:47:53.364Z,97804.97
2022-07-28T05:50:26.426Z,97806.38
2022-07-28T05:52:59.851Z,97807.72
2022-07-28T05:55:33.328Z,97809.81
2022-07-28T05:58:07.801Z,97803.06
2022-07-28T06:00:41.238Z,97804.88
2022-07-28T06:03:14.489Z,97790.13
2022-07-28T06:05:58.368Z,97807.66
2022-07-28T06:08:40.790Z,97802.50
2022-07-28T06:11:22.061Z,97801.59
2022-07-28T06:13:57.377Z,97794.66
2022-07-28T06:16:30.568Z,97788.56
2022-07-28T06:19:03.701Z,97794.72
2022-07-28T06:21:36.794Z,97792.09
2022-07-28T06:24:10.542Z,97792.94
2022-07-28T06:26:44.918Z,97792.03
2022-07-28T06:29:20.740Z,97790.34
2022-07-28T06:31:53.857Z,97797.28
2022-07-28T06:34:27.043Z,97790.28
2022-07-28T06:37:00.241Z,97792.13
2022-07-28T06:39:33.352Z,97789.41
2022-07-28T06:42:06.707Z,97793.69
2022-07-28T06:44:57.884Z,97788.44
2022-07-28T06:47:32.529Z,97781.34
2022-07-28T06:50:07.831Z,97784.91
2022-07-28T06:52:59.456Z,97791.50
2022-07-28T06:55:34.627Z,97782.75
2022-07-28T06:58:09.060Z,97783.22
2022-07-28T07:00:43.539Z,97784.09
2022-07-28T07:03:16.659Z,97785.28
2022-07-28T07:05:51.651Z,97774.53
2022-07-28T07:08:26.361Z,97776.53
2022-07-28T07:11:00.129Z,97768.56
2022-07-28T07:13:33.448Z,97782.22
2022-07-28T07:16:08.065Z,97772.28
2022-07-28T07:18:41.207Z,97772.00
2022-07-28T07:21:14.357Z,97771.31
2022-07-28T07:23:47.703Z,97774.41
2022-07-28T07:26:20.934Z,97763.81
2022-07-28T07:28:54.023Z,97763.41
2022-07-28T07:31:28.696Z,97760.38
2022-07-28T07:34:01.859Z,97760.09
2022-07-28T07:36:35.715Z,97751.59
2022-07-28T07:39:09.720Z,97754.78
2022-07-28T07:41:43.108Z,97756.19
2022-07-28T07:44:16.592Z,97750.50
2022-07-28T07:46:51.855Z,97759.88
2022-07-28T07:49:25.107Z,97747.34
2022-07-28T07:52:18.261Z,97753.59
2022-07-28T07:54:51.397Z,97749.22
2022-07-28T07:57:24.478Z,97748.13
2022-07-28T07:59:57.555Z,97742.38
2022-07-28T08:02:32.092Z,97745.31
2022-07-28T08:05:06.122Z,97741.56
2022-07-28T08:07:41.593Z,97740.88
2022-07-28T08:10:14.800Z,97737.03
2022-07-28T08:12:47.892Z,97746.56
2022-07-28T08:15:21.461Z,97748.81
2022-07-28T08:17:55.969Z,97754.50
2022-07-28T08:20:29.851Z,97754.22
2022-07-28T08:23:02.965Z,97749.56
2022-07-28T08:25:37.316Z,97750.84
2022-07-28T08:28:10.399Z,97755.69
2022-07-28T08:30:44.490Z,97745.13
2022-07-28T08:33:22.011Z,97746.50
2022-07-28T08:35:55.348Z,97733.97
2022-07-28T08:38:28.442Z,97743.22
2022-07-28T08:41:05.805Z,97746.69
2022-07-28T08:43:40.743Z,97740.41
2022-07-28T08:46:14.945Z,97738.50
2022-07-28T08:48:50.602Z,97739.56
2022-07-28T08:51:27.974Z,97737.88
2022-07-28T08:54:03.108Z,97732.53
2022-07-28T08:56:41.367Z,97737.09
2022-07-28T08:59:22.130Z,97732.19
2022-07-28T09:01:57.667Z,97742.53
2022-07-28T09:04:37.109Z,97729.25
2022-07-28T09:07:12.065Z,97723.81
2022-07-28T09:09:46.403Z,97722.25
2022-07-28T09:12:19.760Z,97723.06
2022-07-28T09:15:02.770Z,97725.69
2022-07-28T09:17:37.162Z,97724.63
2022-07-28T09:20:13.087Z,97712.47
2022-07-28T09:22:58.447Z,97709.34
2022-07-28T09:25:32.673Z,97711.59
2022-07-28T09:28:11.411Z,97710.41
2022-07-28T09:30:54.536Z,97713.50
2022-07-28T09:33:41.782Z,97707.53
2022-07-28T09:36:18.264Z,97708.19
2022-07-28T09:38:51.824Z,97702.13
2022-07-28T09:41:26.592Z,97708.69
2022-07-28T09:43:59.669Z,97707.69
2022-07-28T09:46:33.020Z,97701.38
2022-07-28T09:49:06.469Z,97715.88
2022-07-28T09:51:41.205Z,97700.69
2022-07-28T09:54:16.557Z,97702.13
2022-07-28T09:56:49.876Z,97683.31
2022-07-28T09:59:23.017Z,97690.69
2022-07-28T10:01:59.738Z,97699.09
2022-07-28T10:04:35.952Z,97694.75
2022-07-28T10:07:14.136Z,97685.69
2022-07-28T10:09:59.206Z,97687.22
2022-07-28T10:12:34.940Z,97674.47
2022-07-28T10:15:31.040Z,97669.56
2022-07-28T10:18:06.163Z,97684.63
2022-07-28T10:20:39.946Z,97692.97
2022-07-28T10:23:16.176Z,97682.59
2022-07-28T10:25:49.331Z,97681.59
2022-07-28T10:28:23.984Z,97674.44
2022-07-28T10:31:02.208Z,97661.19
2022-07-28T10:33:40.729Z,97662.38
2022-07-28T10:36:14.372Z,97673.47
2022-07-28T10:38:48.972Z,97679.94
2022-07-28T10:41:25.916Z,97675.66
2022-07-28T10:44:04.907Z,97659.88
2022-07-28T10:46:38.906Z,97673.16
2022-07-28T10:49:14.971Z,97672.63
2022-07-28T10:52:15.397Z,97670.66
2022-07-28T10:54:53.472Z,97666.41
2022-07-28T10:57:27.646Z,97664.97
2022-07-28T11:00:14.360Z,97665.00
2022-07-28T11:02:58.875Z,97661.47
2022-07-28T11:05:39.038Z,97665.63
2022-07-28T11:08:30.008Z,97670.03
2022-07-28T11:11:09.263Z,97663.72
2022-07-28T11:13:42.765Z,97656.28
2022-07-28T11:16:22.794Z,97652.72
2022-07-28T11:19:36.529Z,97660.25
2022-07-28T11:22:30.418Z,97651.72
2022-07-28T11:25:22.329Z,97659.88
2022-07-28T11:28:08.109Z,97645.88
2022-07-28T11:30:55.501Z,97638.56
2022-07-28T11:33:55.593Z,97641.63
2022-07-28T11:37:15.355Z,97642.78
2022-07-28T11:39:48.580Z,97637.66
2022-07-28T11:42:29.281Z,97639.44
2022-07-28T11:45:37.577Z,97646.94
2022-07-28T11:48:15.771Z,97648.03
2022-07-28T11:51:11.055Z,97636.22
2022-07-28T11:53:47.312Z,97638.16
2022-07-28T11:56:25.739Z,97641.31
2022-07-28T11:59:01.641Z,97636.22
2022-07-28T12:01:38.120Z,97639.50
2022-07-28T12:04:14.502Z,97640.06
2022-07-28T12:06:52.206Z,97642.47
2022-07-28T12:09:41.129Z,97645.50
2022-07-28T12:12:15.318Z,97634.91
2022-07-28T12:14:48.788Z,97640.00
2022-07-28T12:17:23.583Z,97628.34
2022-07-28T12:19:56.856Z,97630.75
2022-07-28T12:22:30.546Z,97634.00
2022-07-28T12:25:03.960Z,97634.59
2022-07-28T12:27:46.415Z,97631.91
2022-07-28T12:30:27.716Z,97626.72
2022-07-28T12:33:18.497Z,97622.25
2022-07-28T12:35:55.738Z,97625.47
2022-07-28T12:38:30.084Z,97626.16
2022-07-28T12:41:03.308Z,97625.81
2022-07-28T12:43:36.438Z,97623.31
2022-07-28T12:46:09.630Z,97613.59
2022-07-28T12:48:45.055Z,97625.69
2022-07-28T12:51:36.155Z,97615.00
2022-07-28T12:54:12.285Z,97610.94
2022-07-28T12:56:47.557Z,97611.59
2022-07-28T12:59:21.455Z,97615.88
2022-07-28T13:01:56.594Z,97610.88
2022-07-28T13:04:43.639Z,97622.78
2022-07-28T13:07:26.356Z,97610.66
2022-07-28T13:10:05.338Z,97611.31
2022-07-28T13:12:38.543Z,97604.97
2022-07-28T13:15:17.523Z,97608.66
2022-07-28T13:17:53.393Z,97607.13
2022-07-28T13:20:28.403Z,97602.97
2022-07-28T13:23:01.889Z,97605.25
2022-07-28T13:25:35.066Z,97590.19
2022-07-28T13:28:24.354Z,97600.75
2022-07-28T13:30:57.476Z,97593.13
2022-07-28T13:33:30.671Z,97593.50
2022-07-28T13:36:05.613Z,97595.84
2022-07-28T13:38:38.704Z,97592.84
2022-07-28T13:41:11.816Z,97591.06
2022-07-28T13:43:48.300Z,97597.06
2022-07-28T13:46:22.071Z,97581.38
2022-07-28T13:48:58.003Z,97580.44
2022-07-28T13:51:34.853Z,97575.69
2022-07-28T13:54:08.037Z,97573.97
2022-07-28T13:56:42.508Z,97564.63
2022-07-28T13:59:15.609Z,97569.88
2022-07-28T14:01:49.492Z,97567.53
2022-07-28T14:04:24.224Z,97567.91
2022-07-28T14:06:58.981Z,97576.88
2022-07-28T14:09:36.287Z,97567.41
2022-07-28T14:12:12.353Z,97558.41
2022-07-28T14:14:48.532Z,97554.53
2022-07-28T14:17:43.344Z,97556.34
2022-07-28T14:20:17.448Z,97541.94
2022-07-28T14:22:51.913Z,97545.66
2022-07-28T14:25:25.100Z,97541.63
2022-07-28T14:27:58.282Z,97547.72
2022-07-28T14:30:32.237Z,97534.88
2022-07-28T14:33:06.458Z,97542.75
2022-07-28T14:35:39.716Z,97539.09
2022-07-28T14:38:51.939Z,97538.94
2022-07-28T14:41:07.590Z,97531.63
2022-07-28T14:43:40.658Z,97530.91
2022-07-28T14:46:20.646Z,97527.22
2022-07-28T14:48:54.681Z,97537.09
2022-07-28T14:51:27.770Z,97527.13
2022-07-28T14:54:02.911Z,97518.66
2022-07-28T14:56:36.188Z,97514.38
2022-07-28T14:59:09.318Z,97513.06
2022-07-28T15:04:56.643Z,97513.41
2022-07-28T15:07:29.983Z,97519.34
2022-07-28T15:10:05.488Z,97505.41
2022-07-28T15:12:38.633Z,97503.34
2022-07-28T15:15:12.991Z,97518.09
2022-07-28T15:17:46.097Z,97509.34
2022-07-28T15:20:19.253Z,97515.31
2022-07-28T15:22:52.492Z,97514.97
2022-07-28T15:25:27.024Z,97523.31
2022-07-28T15:28:00.119Z,97519.06
2022-07-28T15:30:33.300Z,97520.59
2022-07-28T15:33:07.158Z,97509.44
2022-07-28T15:35:58.901Z,97517.25
2022-07-28T15:38:33.051Z,97512.63
2022-07-28T15:41:07.763Z,97515.56
2022-07-28T15:43:41.009Z,97511.16
2022-07-28T15:46:15.045Z,97512.00
2022-07-28T15:48:48.254Z,97497.81
2022-07-28T15:51:25.776Z,97498.75
2022-07-28T15:54:00.887Z,97500.59
2022-07-28T15:56:38.141Z,97498.00
2022-07-28T15:59:11.242Z,97485.91
2022-07-28T16:01:45.742Z,97487.59
2022-07-28T16:04:19.243Z,97489.63
2022-07-28T16:07:22.384Z,97488.56
2022-07-28T16:09:56.897Z,97480.72
2022-07-28T16:12:31.464Z,97480.00
2022-07-28T16:15:05.040Z,97480.94
2022-07-28T16:17:38.266Z,97472.03
2022-07-28T16:20:12.629Z,97470.03
2022-07-28T16:22:45.712Z,97463.22
2022-07-28T16:25:20.420Z,97470.19
2022-07-28T16:27:54.889Z,97469.09
2022-07-28T16:30:28.433Z,97465.94
2022-07-28T16:33:01.667Z,97461.59
2022-07-28T16:35:35.168Z,97458.94
2022-07-28T16:38:08.247Z,97461.75
2022-07-28T16:40:41.595Z,97464.53
2022-07-28T16:43:16.032Z,97455.72
2022-07-28T16:45:49.105Z,97458.41
2022-07-28T16:48:22.160Z,97456.84
2022-07-28T16:50:55.477Z,97462.13
2022-07-28T16:53:28.580Z,97466.50
2022-07-28T16:56:01.736Z,97464.66
2022-07-28T16:58:37.552Z,97451.63
2022-07-28T17:01:10.739Z,97462.16
2022-07-28T17:03:44.051Z,97463.38
2022-07-28T17:06:17.376Z,97455.50
2022-07-28T17:08:50.463Z,97467.72
2022-07-28T17:11:23.545Z,97463.41
2022-07-28T17:13:57.975Z,97462.69
2022-07-28T17:16:31.742Z,97470.66
2022-07-28T17:19:05.347Z,97465.25
2022-07-28T17:21:39.916Z,97466.38
2022-07-28T17:24:14.065Z,97474.16
2022-07-28T17:29:42.634Z,97483.88
2022-07-28T17:32:15.833Z,97488.94
2022-07-28T17:34:48.896Z,97484.59
2022-07-28T17:37:22.413Z,97475.13
2022-07-28T17:39:55.690Z,97491.63
2022-07-28T17:42:28.975Z,97485.56
2022-07-28T17:45:03.409Z,97494.47
2022-07-28T17:47:36.658Z,97493.81
2022-07-28T17:50:12.996Z,97496.19
2022-07-28T17:52:46.844Z,97508.56
2022-07-28T17:55:57.602Z,97513.22
2022-07-28T17:58:31.072Z,97517.56
2022-07-28T18:01:11.960Z,97513.28
2022-07-28T18:03:58.692Z,97503.78
2022-07-28T18:06:35.881Z,97502.28
2022-07-28T18:09:10.898Z,97499.88
2022-07-28T18:11:57.534Z,97511.50
2022-07-28T18:14:32.043Z,97507.22
2022-07-28T18:17:06.474Z,97514.38
2022-07-28T18:19:44.996Z,97513.53
2022-07-28T18:22:18.563Z,97501.56
2022-07-28T18:24:51.601Z,97499.81
2022-07-28T18:27:24.704Z,97499.81
2022-07-28T18:29:57.775Z,97496.44
2022-07-28T18:32:32.204Z,97489.53
2022-07-28T18:35:05.799Z,97494.19
2022-07-28T18:37:45.392Z,97496.06
2022-07-28T18:40:21.502Z,97487.44
2022-07-28T18:42:55.686Z,97484.06
2022-07-28T18:45:28.951Z,97496.19
2022-07-28T18:48:04.336Z,97498.06
2022-07-28T18:50:37.406Z,97496.41
2022-07-28T18:53:14.025Z,97505.28
2022-07-28T18:55:47.126Z,97503.41
2022-07-28T18:58:20.228Z,97505.28
2022-07-28T19:00:53.368Z,97508.88
2022-07-28T19:03:28.040Z,97502.00
2022-07-28T19:06:01.120Z,97504.63
2022-07-28T19:08:34.214Z,97496.81
2022-07-28T19:11:07.305Z,97495.13
2022-07-28T19:13:40.342Z,97498.72
2022-07-28T19:16:13.537Z,97514.50
2022-07-28T19:18:48.111Z,97512.88
2022-07-28T19:21:21.231Z,97513.84
2022-07-28T19:23:54.255Z,97515.50
2022-07-28T19:26:28.045Z,97524.19
2022-07-28T19:29:01.174Z,97533.03
2022-07-28T19:31:34.314Z,97536.53
2022-07-28T19:34:09.463Z,97546.19
2022-07-28T19:36:42.653Z,97542.63
2022-07-28T19:39:15.930Z,97545.34
2022-07-28T19:41:49.133Z,97555.91
2022-07-28T19:44:22.196Z,97548.22
2022-07-28T19:46:56.382Z,97562.09
2022-07-28T19:49:30.915Z,97562.06
2022-07-28T19:52:04.300Z,97566.53
2022-07-28T19:54:37.419Z,97570.00
2022-07-28T19:57:12.557Z,97570.88
2022-07-28T19:59:47.608Z,97574.44
2022-07-28T20:02:20.731Z,97575.28
2022-07-28T20:04:55.321Z,97571.84
2022-07-28T20:07:28.485Z,97570.94
2022-07-28T20:10:01.828Z,97576.25
2022-07-28T20:12:36.877Z,97589.38
2022-07-28T20:15:11.143Z,97596.25
2022-07-28T20:17:44.346Z,97610.19
2022-07-28T20:20:19.001Z,97609.38
2022-07-28T20:22:53.221Z,97619.03
2022-07-28T20:25:26.349Z,97622.53
2022-07-28T20:27:59.387Z,97628.59
2022-07-28T20:30:33.344Z,97626.00
2022-07-28T20:33:07.949Z,97636.50
2022-07-28T20:35:42.359Z,97660.13
2022-07-28T20:38:15.473Z,97694.25
2022-07-28T20:40:48.528Z,97736.97
2022-07-28T20:43:21.705Z,97760.59
2022-07-28T20:45:54.806Z,97779.84
2022-07-28T20:48:27.980Z,97785.13
2022-07-28T20:51:02.407Z,97804.31
2022-07-28T20:53:37.464Z,97802.44
2022-07-28T20:56:10.583Z,97803.03
2022-07-28T20:58:43.653Z,97817.22
2022-07-28T21:01:17.155Z,97818.22
2022-07-28T21:03:54.662Z,97810.72
2022-07-28T21:06:29.072Z,97830.88
2022-07-28T21:09:02.594Z,97831.34
2022-07-28T21:11:37.554Z,97827.63
2022-07-28T21:14:10.615Z,97849.00
2022-07-28T21:16:43.700Z,97843.44
2022-07-28T21:19:16.843Z,97840.84
2022-07-28T21:21:51.263Z,97832.72
2022-07-28T21:24:24.338Z,97843.59
2022-07-28T21:26:57.450Z,97833.97
2022-07-28T21:29:29.643Z,97830.38
2022-07-28T21:32:05.151Z,97835.41
2022-07-28T21:34:39.507Z,97849.34
2022-07-28T21:37:14.204Z,97873.44
2022-07-28T21:39:47.317Z,97889.06
2022-07-28T21:42:20.417Z,97889.19
2022-07-28T21:44:53.475Z,97886.66
2022-07-28T21:47:26.568Z,97890.09
2022-07-28T21:49:59.607Z,97891.59
2022-07-28T21:52:34.074Z,97891.19
2022-07-28T21:55:09.257Z,97904.22
2022-07-28T21:57:42.859Z,97893.72
2022-07-28T22:00:17.660Z,97886.88
2022-07-28T22:02:50.745Z,97890.09
2022-07-28T22:05:24.924Z,97877.72
2022-07-28T22:07:59.448Z,97858.44
2022-07-28T22:10:32.555Z,97840.09
2022-07-28T22:13:05.727Z,97806.13
2022-07-28T22:15:38.991Z,97749.72
2022-07-28T22:18:16.709Z,97738.63
2022-07-28T22:20:50.082Z,97748.75
2022-07-28T22:23:29.874Z,97771.09
2022-07-28T22:26:03.296Z,97777.34
2022-07-28T22:28:36.369Z,97771.09
2022-07-28T22:31:10.273Z,97775.28
2022-07-28T22:33:43.342Z,97766.50
2022-07-28T22:36:16.427Z,97768.06
2022-07-28T22:38:50.828Z,97764.00
2022-07-28T22:41:23.971Z,97763.16
2022-07-28T22:43:57.123Z,97768.16
2022-07-28T22:46:30.253Z,97763.84
2022-07-28T22:49:03.425Z,97765.81
2022-07-28T22:51:36.537Z,97767.78
2022-07-28T22:54:11.113Z,97774.13
2022-07-28T22:56:44.411Z,97770.94
2022-07-28T22:59:17.880Z,97762.19
2022-07-28T23:01:51.046Z,97757.50
2022-07-28T23:04:24.358Z,97773.91
2022-07-28T23:06:59.150Z,97768.66
2022-07-28T23:09:34.584Z,97755.59
2022-07-28T23:12:09.288Z,97760.19
2022-07-28T23:14:42.436Z,97762.03
2022-07-28T23:17:15.467Z,97762.03
2022-07-28T23:19:48.569Z,97755.25
2022-07-28T23:22:21.627Z,97760.47
2022-07-28T23:24:56.224Z,97760.66
2022-07-28T23:27:29.334Z,97760.56
2022-07-28T23:30:02.463Z,97762.19
2022-07-28T23:32:35.578Z,97750.16
2022-07-28T23:35:09.929Z,97740.66
2022-07-28T23:37:43.002Z,97749.38
2022-07-28T23:40:17.471Z,97746.72
2022-07-28T23:42:50.585Z,97744.91
2022-07-28T23:45:23.741Z,97741.41
2022-07-28T23:47:58.948Z,97736.81
2022-07-28T23:50:32.240Z,97734.28
2022-07-28T23:53:05.325Z,97735.88
2022-07-28T23:55:39.723Z,97737.59
2022-07-28T23:58:12.795Z,97738.47
